createdAt,value
2023-04-10T00:01:03.804Z,99117.13
2023-04-10T00:03:30.108Z,99118.78
2023-04-10T00:05:56.319Z,99114.44
2023-04-10T00:08:22.426Z,99112.59
2023-04-10T00:10:48.522Z,99106.44
2023-04-10T00:13:14.629Z,99106.22
2023-04-10T00:15:40.747Z,99099.41
2023-04-10T00:18:06.964Z,99095.91
2023-04-10T00:20:33.110Z,99096.72
2023-04-10T00:22:59.230Z,99090.56
2023-04-10T00:25:25.330Z,99091.38
2023-04-10T00:27:51.438Z,99092.41
2023-04-10T00:30:17.547Z,99087.06
2023-04-10T00:32:43.639Z,99091.38
2023-04-10T00:35:09.788Z,99087.88
2023-04-10T00:37:36.282Z,99084.38
2023-04-10T00:40:02.394Z,99083.56
2023-04-10T00:42:28.501Z,99075.53
2023-04-10T00:44:54.609Z,99074.69
2023-04-10T00:47:20.717Z,99071.19
2023-04-10T00:49:46.815Z,99074.69
2023-04-10T00:52:12.940Z,99062.34
2023-04-10T00:54:39.025Z,99069.34
2023-04-10T00:57:05.131Z,99063.38
2023-04-10T00:59:31.245Z,99058.84
2023-04-10T01:01:57.483Z,99060.69
2023-04-10T01:04:23.874Z,99058.03
2023-04-10T01:06:50.071Z,99054.50
2023-04-10T01:09:16.182Z,99057.16
2023-04-10T01:11:42.272Z,99061.53
2023-04-10T01:14:08.386Z,99053.66
2023-04-10T01:16:34.529Z,99057.16
2023-04-10T01:19:00.669Z,99049.13
2023-04-10T01:21:26.818Z,99053.66
2023-04-10T01:23:53.206Z,99048.31
2023-04-10T01:26:19.506Z,99047.50
2023-04-10T01:28:45.621Z,99051.00
2023-04-10T01:31:11.782Z,99050.00
2023-04-10T01:33:38.009Z,99044.00
2023-04-10T01:36:04.190Z,99045.84
2023-04-10T01:38:30.291Z,99044.00
2023-04-10T01:40:56.381Z,99039.66
2023-04-10T01:43:22.597Z,99049.34
2023-04-10T01:45:48.703Z,99056.75
2023-04-10T01:48:14.809Z,99050.34
2023-04-10T01:50:40.966Z,99054.88
2023-04-10T01:53:07.084Z,99045.84
2023-04-10T01:55:33.186Z,99041.50
2023-04-10T01:57:59.299Z,99039.88
2023-04-10T02:00:25.439Z,99036.16
2023-04-10T02:02:51.763Z,99026.50
2023-04-10T02:05:18.059Z,99016.63
2023-04-10T02:07:44.180Z,99013.13
2023-04-10T02:10:10.285Z,99005.28
2023-04-10T02:12:36.399Z,99001.59
2023-04-10T02:15:02.541Z,99001.78
2023-04-10T02:17:28.718Z,99004.28
2023-04-10T02:19:54.860Z,99000.75
2023-04-10T02:22:20.974Z,98994.56
2023-04-10T02:24:47.069Z,98997.25
2023-04-10T02:27:13.187Z,99002.59
2023-04-10T02:29:39.300Z,98996.63
2023-04-10T02:32:05.407Z,99000.97
2023-04-10T02:34:31.514Z,99003.63
2023-04-10T02:36:57.648Z,99006.50
2023-04-10T02:39:23.758Z,99000.09
2023-04-10T02:41:49.896Z,98988.59
2023-04-10T02:44:16.002Z,98994.75
2023-04-10T02:46:42.196Z,98990.44
2023-04-10T02:49:08.353Z,98993.13
2023-04-10T02:51:34.464Z,98988.81
2023-04-10T02:54:00.563Z,98991.25
2023-04-10T02:56:26.685Z,98986.13
2023-04-10T02:58:52.793Z,98987.78
2023-04-10T03:01:18.962Z,98978.94
2023-04-10T03:03:45.225Z,98983.47
2023-04-10T03:06:11.383Z,98973.75
2023-04-10T03:08:37.513Z,98973.75
2023-04-10T03:11:03.752Z,98984.47
2023-04-10T03:13:29.853Z,98976.44
2023-04-10T03:15:56.039Z,98975.63
2023-04-10T03:18:22.153Z,98982.00
2023-04-10T03:20:48.251Z,98974.56
2023-04-10T03:23:14.350Z,98977.47
2023-04-10T03:25:40.494Z,98970.25
2023-04-10T03:28:06.611Z,98968.63
2023-04-10T03:30:32.714Z,98968.63
2023-04-10T03:32:58.866Z,98950.72
2023-04-10T03:35:25.003Z,98941.88
2023-04-10T03:37:51.100Z,98944.56
2023-04-10T03:40:17.215Z,98947.41
2023-04-10T03:42:43.343Z,98944.72
2023-04-10T03:45:09.445Z,98939.19
2023-04-10T03:47:35.763Z,98938.34
2023-04-10T03:50:01.897Z,98934.84
2023-04-10T03:52:28.007Z,98937.53
2023-04-10T03:54:54.589Z,98929.50
2023-04-10T03:57:20.683Z,98930.53
2023-04-10T03:59:46.784Z,98927.88
2023-04-10T04:02:13.011Z,98924.34
2023-04-10T04:04:39.251Z,98923.53
2023-04-10T04:07:05.479Z,98925.19
2023-04-10T04:09:31.604Z,98925.38
2023-04-10T04:11:57.746Z,98920.03
2023-04-10T04:14:23.878Z,98920.84
2023-04-10T04:16:50.017Z,98926.19
2023-04-10T04:19:16.187Z,98928.88
2023-04-10T04:21:42.290Z,98922.69
2023-04-10T04:24:08.400Z,98925.38
2023-04-10T04:26:34.503Z,98916.53
2023-04-10T04:29:00.594Z,98922.69
2023-04-10T04:31:26.754Z,98914.69
2023-04-10T04:33:53.085Z,98920.22
2023-04-10T04:36:19.329Z,98917.53
2023-04-10T04:38:45.450Z,98915.72
2023-04-10T04:41:11.543Z,98914.88
2023-04-10T04:43:37.665Z,98912.19
2023-04-10T04:46:03.888Z,98912.19
2023-04-10T04:48:30.034Z,98908.69
2023-04-10T04:50:56.130Z,98912.19
2023-04-10T04:53:22.293Z,98903.34
2023-04-10T04:55:48.405Z,98902.53
2023-04-10T04:58:14.510Z,98905.19
2023-04-10T05:00:40.648Z,98897.19
2023-04-10T05:03:06.943Z,98899.84
2023-04-10T05:05:33.205Z,98899.03
2023-04-10T05:07:59.329Z,98895.53
2023-04-10T05:10:25.420Z,98889.16
2023-04-10T05:12:51.498Z,98890.19
2023-04-10T05:15:18.012Z,98881.31
2023-04-10T05:17:44.207Z,98885.03
2023-04-10T05:20:10.358Z,98888.53
2023-04-10T05:22:36.462Z,98883.16
2023-04-10T05:25:02.549Z,98878.84
2023-04-10T05:27:28.643Z,98883.16
2023-04-10T05:29:54.838Z,98884.00
2023-04-10T05:32:20.932Z,98877.00
2023-04-10T05:34:47.110Z,98869.78
2023-04-10T05:37:13.268Z,98875.16
2023-04-10T05:39:39.363Z,98884.22
2023-04-10T05:42:05.465Z,98884.38
2023-04-10T05:44:31.588Z,98882.34
2023-04-10T05:46:57.699Z,98887.69
2023-04-10T05:49:23.794Z,98884.22
2023-04-10T05:51:49.916Z,98889.56
2023-04-10T05:54:16.023Z,98882.53
2023-04-10T05:56:42.127Z,98886.88
2023-04-10T05:59:08.610Z,98884.22
2023-04-10T06:01:34.741Z,98889.56
2023-04-10T06:04:01.042Z,98887.88
2023-04-10T06:06:27.267Z,98876.38
2023-04-10T06:08:53.687Z,98878.00
2023-04-10T06:11:19.944Z,98876.38
2023-04-10T06:13:46.074Z,98879.84
2023-04-10T06:16:12.205Z,98879.84
2023-04-10T06:18:38.318Z,98877.41
2023-04-10T06:21:04.430Z,98880.91
2023-04-10T06:23:30.556Z,98865.84
2023-04-10T06:25:56.667Z,98870.19
2023-04-10T06:28:22.796Z,98867.72
2023-04-10T06:30:48.915Z,98868.34
2023-04-10T06:33:15.031Z,98864.84
2023-04-10T06:35:41.148Z,98861.34
2023-04-10T06:38:07.277Z,98860.50
2023-04-10T06:40:33.383Z,98857.00
2023-04-10T06:42:59.496Z,98862.38
2023-04-10T06:45:25.601Z,98860.50
2023-04-10T06:47:51.720Z,98859.69
2023-04-10T06:50:17.866Z,98870.38
2023-04-10T06:52:43.964Z,98874.72
2023-04-10T06:55:10.054Z,98872.06
2023-04-10T06:57:36.217Z,98875.72
2023-04-10T07:00:02.312Z,98869.56
2023-04-10T07:02:28.573Z,98861.53
2023-04-10T07:04:54.756Z,98870.38
2023-04-10T07:07:20.867Z,98864.22
2023-04-10T07:09:46.977Z,98864.22
2023-04-10T07:12:13.098Z,98852.69
2023-04-10T07:14:39.279Z,98867.94
2023-04-10T07:17:05.390Z,98861.72
2023-04-10T07:19:31.895Z,98859.91
2023-04-10T07:21:57.989Z,98830.50
2023-04-10T07:24:24.090Z,98852.69
2023-04-10T07:26:50.204Z,98844.88
2023-04-10T07:29:16.299Z,98854.56
2023-04-10T07:31:42.544Z,98857.22
2023-04-10T07:34:08.803Z,98847.53
2023-04-10T07:36:34.894Z,98856.38
2023-04-10T07:39:00.997Z,98847.53
2023-04-10T07:41:27.105Z,98848.34
2023-04-10T07:43:53.205Z,98845.69
2023-04-10T07:46:19.373Z,98847.53
2023-04-10T07:48:45.604Z,98844.88
2023-04-10T07:51:11.699Z,98847.53
2023-04-10T07:53:37.816Z,98844.03
2023-04-10T07:56:03.944Z,98835.19
2023-04-10T07:58:30.074Z,98838.69
2023-04-10T08:00:56.171Z,98836.84
2023-04-10T08:03:22.447Z,98828.00
2023-04-10T08:05:48.643Z,98823.47
2023-04-10T08:08:14.742Z,98801.25
2023-04-10T08:10:40.928Z,98810.09
2023-04-10T08:13:07.021Z,98801.25
2023-04-10T08:15:33.152Z,98801.25
2023-04-10T08:17:59.349Z,98778.22
2023-04-10T08:20:25.522Z,98774.53
2023-04-10T08:22:51.729Z,98775.34
2023-04-10T08:25:18.031Z,98774.53
2023-04-10T08:27:44.116Z,98770.00
2023-04-10T08:30:10.219Z,98771.84
2023-04-10T08:32:36.397Z,98773.69
2023-04-10T08:35:02.517Z,98769.19
2023-04-10T08:37:28.599Z,98763.00
2023-04-10T08:39:54.715Z,98773.47
2023-04-10T08:42:20.843Z,98749.63
2023-04-10T08:44:46.955Z,98763.81
2023-04-10T08:47:13.071Z,98754.97
2023-04-10T08:49:39.180Z,98755.81
2023-04-10T08:52:05.290Z,98772.66
2023-04-10T08:54:31.424Z,98753.13
2023-04-10T08:56:57.521Z,98754.78
2023-04-10T08:59:23.667Z,98754.78
2023-04-10T09:01:50.078Z,98756.63
2023-04-10T09:04:16.395Z,98760.13
2023-04-10T09:06:42.560Z,98747.78
2023-04-10T09:09:08.738Z,98748.59
2023-04-10T09:11:34.870Z,98746.75
2023-04-10T09:14:00.975Z,98747.59
2023-04-10T09:16:27.179Z,98732.56
2023-04-10T09:18:53.398Z,98734.22
2023-04-10T09:21:19.503Z,98735.03
2023-04-10T09:23:45.620Z,98714.47
2023-04-10T09:26:11.707Z,98741.22
2023-04-10T09:28:37.818Z,98719.81
2023-04-10T09:31:03.961Z,98717.16
2023-04-10T09:33:30.121Z,98711.78
2023-04-10T09:35:56.231Z,98716.09
2023-04-10T09:38:22.364Z,98711.59
2023-04-10T09:40:48.477Z,98685.88
2023-04-10T09:43:14.576Z,98691.03
2023-04-10T09:45:40.692Z,98693.91
2023-04-10T09:48:07.093Z,98677.66
2023-04-10T09:50:36.377Z,98681.34
2023-04-10T09:53:04.031Z,98676.00
2023-04-10T09:55:30.138Z,98687.53
2023-04-10T09:57:56.235Z,98680.34
2023-04-10T10:00:22.357Z,98683.00
2023-04-10T10:02:48.584Z,98679.53
2023-04-10T10:05:14.843Z,98685.69
2023-04-10T10:07:41.108Z,98680.34
2023-04-10T10:10:07.206Z,98684.66
2023-04-10T10:12:33.307Z,98691.84
2023-04-10T10:14:59.463Z,98685.47
2023-04-10T10:17:25.605Z,98672.94
2023-04-10T10:19:51.752Z,98670.28
2023-04-10T10:22:17.893Z,98668.41
2023-04-10T10:24:44.010Z,98667.59
2023-04-10T10:27:10.110Z,98666.56
2023-04-10T10:29:36.226Z,98656.69
2023-04-10T10:32:02.388Z,98640.63
2023-04-10T10:34:28.525Z,98648.66
2023-04-10T10:36:54.737Z,98643.31
2023-04-10T10:39:20.901Z,98648.66
2023-04-10T10:41:47.057Z,98641.47
2023-04-10T10:44:13.236Z,98640.44
2023-04-10T10:46:39.493Z,98642.28
2023-04-10T10:49:05.688Z,98642.28
2023-04-10T10:51:31.827Z,98642.06
2023-04-10T10:53:57.948Z,98623.34
2023-04-10T10:56:24.057Z,98626.03
2023-04-10T10:58:50.186Z,98620.69
2023-04-10T11:01:16.390Z,98617.00
2023-04-10T11:03:42.584Z,98608.97
2023-04-10T11:06:08.737Z,98599.91
2023-04-10T11:08:34.841Z,98597.25
2023-04-10T11:11:00.943Z,98587.34
2023-04-10T11:13:27.092Z,98582.00
2023-04-10T11:15:53.197Z,98585.53
2023-04-10T11:18:19.289Z,98592.50
2023-04-10T11:20:45.407Z,98571.31
2023-04-10T11:23:11.499Z,98564.13
2023-04-10T11:25:37.637Z,98555.88
2023-04-10T11:28:03.743Z,98564.75
2023-04-10T11:30:29.838Z,98551.59
2023-04-10T11:32:55.985Z,98551.38
2023-04-10T11:35:22.129Z,98557.56
2023-04-10T11:37:48.257Z,98553.03
2023-04-10T11:40:14.351Z,98534.31
2023-04-10T11:42:40.477Z,98545.63
2023-04-10T11:45:06.581Z,98525.03
2023-04-10T11:47:32.705Z,98510.03
2023-04-10T11:49:58.868Z,98498.50
2023-04-10T11:52:24.956Z,98504.69
2023-04-10T11:54:51.037Z,98503.66
2023-04-10T11:57:17.140Z,98500.97
2023-04-10T11:59:43.231Z,98487.41
2023-04-10T12:02:09.656Z,98496.44
2023-04-10T12:04:36.021Z,98481.22
2023-04-10T12:07:02.229Z,98491.91
2023-04-10T12:09:28.330Z,98484.50
2023-04-10T12:11:54.836Z,98479.38
2023-04-10T12:14:20.940Z,98481.00
2023-04-10T12:16:47.067Z,98480.81
2023-04-10T12:19:13.209Z,98465.78
2023-04-10T12:21:39.303Z,98474.66
2023-04-10T12:24:05.400Z,98469.31
2023-04-10T12:26:31.517Z,98468.25
2023-04-10T12:28:58.040Z,98470.94
2023-04-10T12:31:24.502Z,98461.88
2023-04-10T12:33:50.729Z,98464.53
2023-04-10T12:36:16.820Z,98453.84
2023-04-10T12:38:42.961Z,98456.31
2023-04-10T12:41:09.107Z,98445.63
2023-04-10T12:43:35.278Z,98441.09
2023-04-10T12:46:01.528Z,98438.41
2023-04-10T12:48:27.648Z,98452.59
2023-04-10T12:50:53.746Z,98427.50
2023-04-10T12:53:19.852Z,98440.88
2023-04-10T12:55:45.957Z,98420.31
2023-04-10T12:58:12.058Z,98425.66
2023-04-10T13:00:38.152Z,98424.63
2023-04-10T13:03:04.380Z,98432.63
2023-04-10T13:05:30.628Z,98407.56
2023-04-10T13:07:56.742Z,98399.53
2023-04-10T13:10:22.854Z,98402.19
2023-04-10T13:12:48.968Z,98391.50
2023-04-10T13:15:15.072Z,98397.66
2023-04-10T13:17:41.717Z,98397.66
2023-04-10T13:20:08.035Z,98384.28
2023-04-10T13:22:34.150Z,98377.94
2023-04-10T13:25:00.311Z,98371.72
2023-04-10T13:27:26.488Z,98373.41
2023-04-10T13:29:52.596Z,98368.66
2023-04-10T13:32:18.718Z,98352.59
2023-04-10T13:34:44.811Z,98343.53
2023-04-10T13:37:10.910Z,98335.72
2023-04-10T13:39:37.041Z,98340.88
2023-04-10T13:42:03.151Z,98338.19
2023-04-10T13:44:29.274Z,98345.41
2023-04-10T13:46:55.474Z,98339.00
2023-04-10T13:49:21.630Z,98334.47
2023-04-10T13:51:47.743Z,98318.41
2023-04-10T13:54:13.886Z,98318.41
2023-04-10T13:56:39.977Z,98322.75
2023-04-10T13:59:06.093Z,98304.03
2023-04-10T14:01:32.210Z,98314.72
2023-04-10T14:03:58.473Z,98303.81
2023-04-10T14:06:24.656Z,98293.13
2023-04-10T14:08:50.776Z,98293.94
2023-04-10T14:11:16.879Z,98291.25
2023-04-10T14:13:43.011Z,98289.41
2023-04-10T14:16:09.168Z,98287.53
2023-04-10T14:18:35.350Z,98267.19
2023-04-10T14:21:01.466Z,98249.28
2023-04-10T14:23:28.072Z,98265.13
2023-04-10T14:25:54.162Z,98260.59
2023-04-10T14:28:20.284Z,98249.06
2023-04-10T14:30:46.409Z,98240.00
2023-04-10T14:33:12.594Z,98238.13
2023-04-10T14:35:38.741Z,98224.75
2023-04-10T14:38:04.877Z,98225.56
2023-04-10T14:40:30.999Z,98214.06
2023-04-10T14:42:57.096Z,98221.88
2023-04-10T14:45:23.205Z,98196.97
2023-04-10T14:47:49.420Z,98194.31
2023-04-10T14:50:15.562Z,98188.97
2023-04-10T14:52:41.671Z,98183.38
2023-04-10T14:55:07.778Z,98178.03
2023-04-10T14:57:33.862Z,98154.78
2023-04-10T14:59:59.985Z,98174.31
2023-04-10T15:02:26.243Z,98154.78
2023-04-10T15:04:52.456Z,98154.78
2023-04-10T15:07:18.562Z,98159.28
2023-04-10T15:09:44.689Z,98160.94
2023-04-10T15:12:10.780Z,98155.59
2023-04-10T15:14:36.881Z,98159.91
2023-04-10T15:17:03.028Z,98151.88
2023-04-10T15:19:29.153Z,98149.19
2023-04-10T15:21:55.522Z,98150.84
2023-04-10T15:24:21.626Z,98158.03
2023-04-10T15:26:47.739Z,98158.88
2023-04-10T15:29:13.868Z,98158.88
2023-04-10T15:31:39.965Z,98165.06
2023-04-10T15:34:06.055Z,98173.06
2023-04-10T15:36:32.177Z,98153.53
2023-04-10T15:38:58.351Z,98154.09
2023-04-10T15:41:24.464Z,98141.78
2023-04-10T15:43:50.586Z,98143.63
2023-04-10T15:46:16.712Z,98151.44
2023-04-10T15:48:42.826Z,98138.28
2023-04-10T15:51:09.103Z,98149.59
2023-04-10T15:53:35.201Z,98143.41
2023-04-10T15:56:01.311Z,98140.72
2023-04-10T15:58:27.488Z,98128.41
2023-04-10T16:00:53.574Z,98136.44
2023-04-10T16:03:19.764Z,98138.91
2023-04-10T16:05:45.955Z,98143.41
2023-04-10T16:08:12.073Z,98135.38
2023-04-10T16:10:38.186Z,98145.88
2023-04-10T16:13:04.370Z,98135.97
2023-04-10T16:15:30.515Z,98126.34
2023-04-10T16:17:56.618Z,98130.63
2023-04-10T16:20:22.738Z,98123.44
2023-04-10T16:22:48.878Z,98114.38
2023-04-10T16:25:14.976Z,98110.06
2023-04-10T16:27:41.217Z,98112.75
2023-04-10T16:30:07.332Z,98107.41
2023-04-10T16:32:33.475Z,98095.66
2023-04-10T16:34:59.607Z,98096.47
2023-04-10T16:37:25.707Z,98093.16
2023-04-10T16:39:51.821Z,98087.81
2023-04-10T16:42:18.467Z,98089.47
2023-04-10T16:44:44.572Z,98078.78
2023-04-10T16:47:10.683Z,98070.75
2023-04-10T16:49:36.843Z,98068.06
2023-04-10T16:52:02.932Z,98078.78
2023-04-10T16:54:29.084Z,98079.59
2023-04-10T16:56:55.218Z,98077.72
2023-04-10T16:59:21.329Z,98068.06
2023-04-10T17:01:47.490Z,98069.09
2023-04-10T17:04:13.694Z,98066.22
2023-04-10T17:06:39.813Z,98061.66
2023-04-10T17:09:05.893Z,98052.03
2023-04-10T17:11:32.013Z,98053.66
2023-04-10T17:13:58.108Z,98058.38
2023-04-10T17:16:24.239Z,98050.16
2023-04-10T17:18:50.389Z,98034.91
2023-04-10T17:21:16.489Z,98036.78
2023-04-10T17:23:42.613Z,98032.22
2023-04-10T17:26:08.728Z,98026.06
2023-04-10T17:28:34.876Z,98037.59
2023-04-10T17:31:00.960Z,98026.06
2023-04-10T17:33:27.538Z,98005.72
2023-04-10T17:35:53.733Z,98007.34
2023-04-10T17:38:19.850Z,98012.69
2023-04-10T17:40:46.019Z,98007.34
2023-04-10T17:43:12.157Z,97989.44
2023-04-10T17:45:38.248Z,97995.81
2023-04-10T17:48:04.542Z,97986.16
2023-04-10T17:50:30.743Z,97985.13
2023-04-10T17:52:56.841Z,97969.88
2023-04-10T17:55:22.954Z,97971.75
2023-04-10T17:57:49.054Z,97969.06
2023-04-10T18:00:15.144Z,97966.41
2023-04-10T18:02:41.386Z,97961.84
2023-04-10T18:05:07.536Z,97958.38
2023-04-10T18:07:33.607Z,97956.72
2023-04-10T18:09:59.719Z,97964.75
2023-04-10T18:12:25.807Z,97964.53
2023-04-10T18:14:51.900Z,97956.72
2023-04-10T18:17:18.019Z,97970.69
2023-04-10T18:19:44.113Z,97963.72
2023-04-10T18:22:10.226Z,97963.72
2023-04-10T18:24:36.368Z,97975.22
2023-04-10T18:27:02.497Z,97970.94
2023-04-10T18:29:28.627Z,97972.78
2023-04-10T18:31:54.740Z,97967.41
2023-04-10T18:34:20.816Z,97970.94
2023-04-10T18:36:46.903Z,97965.59
2023-04-10T18:39:13.014Z,97970.94
2023-04-10T18:41:39.120Z,97982.44
2023-04-10T18:44:05.980Z,97991.50
2023-04-10T18:46:32.766Z,97996.84
2023-04-10T18:48:59.128Z,97986.16
2023-04-10T18:51:25.238Z,97981.03
2023-04-10T18:53:51.359Z,97970.09
2023-04-10T18:56:17.454Z,97959.38
2023-04-10T18:58:43.565Z,97948.94
2023-04-10T19:01:09.756Z,97956.72
2023-04-10T19:03:36.087Z,97962.06
2023-04-10T19:06:02.378Z,97952.41
2023-04-10T19:08:28.507Z,97954.03
2023-04-10T19:10:54.618Z,97956.72
2023-04-10T19:13:20.734Z,97953.81
2023-04-10T19:15:46.880Z,97947.06
2023-04-10T19:18:14.793Z,97936.38
2023-04-10T19:20:52.412Z,97937.97
2023-04-10T19:23:19.068Z,97940.66
2023-04-10T19:25:45.189Z,97943.56
2023-04-10T19:28:11.281Z,97956.72
2023-04-10T19:30:37.408Z,97948.94
2023-04-10T19:33:03.629Z,97940.66
2023-04-10T19:35:29.893Z,97942.72
2023-04-10T19:37:56.655Z,97947.06
2023-04-10T19:40:22.751Z,97967.41
2023-04-10T19:42:48.845Z,97960.44
2023-04-10T19:45:15.014Z,97970.34
2023-04-10T19:47:41.155Z,97972.16
2023-04-10T19:50:07.281Z,97985.53
2023-04-10T19:52:33.401Z,97970.34
2023-04-10T19:54:59.543Z,97974.84
2023-04-10T19:57:25.721Z,97975.69
2023-04-10T19:59:51.860Z,97969.50
2023-04-10T20:02:18.012Z,97966.00
2023-04-10T20:04:45.710Z,97968.69
2023-04-10T20:07:14.030Z,97966.00
2023-04-10T20:09:40.122Z,97982.06
2023-04-10T20:12:06.200Z,97976.69
2023-04-10T20:14:32.301Z,97983.09
2023-04-10T20:16:58.396Z,97976.94
2023-04-10T20:19:24.497Z,97975.09
2023-04-10T20:21:50.588Z,97987.66
2023-04-10T20:24:16.675Z,97978.56
2023-04-10T20:26:42.759Z,97982.28
2023-04-10T20:29:08.862Z,97976.09
2023-04-10T20:31:35.035Z,97976.94
2023-04-10T20:34:01.142Z,97959.25
2023-04-10T20:36:27.258Z,97965.41
2023-04-10T20:38:53.730Z,97965.41
2023-04-10T20:41:20.053Z,97969.13
2023-04-10T20:43:46.225Z,97976.09
2023-04-10T20:46:12.313Z,97985.19
2023-04-10T20:48:38.429Z,97998.56
2023-04-10T20:51:04.555Z,98005.78
2023-04-10T20:53:30.644Z,97999.38
2023-04-10T20:55:56.739Z,98006.59
2023-04-10T20:58:22.910Z,98009.25
2023-04-10T21:00:49.056Z,98021.81
2023-04-10T21:03:15.285Z,98015.66
2023-04-10T21:05:41.476Z,98020.16
2023-04-10T21:08:07.592Z,98010.31
2023-04-10T21:10:33.703Z,98013.00
2023-04-10T21:12:59.832Z,98007.63
2023-04-10T21:15:25.957Z,97997.94
2023-04-10T21:17:52.091Z,97991.78
2023-04-10T21:20:18.222Z,97995.28
2023-04-10T21:22:44.320Z,97983.97
2023-04-10T21:25:10.405Z,97982.72
2023-04-10T21:27:36.521Z,97981.09
2023-04-10T21:30:02.643Z,97970.38
2023-04-10T21:32:28.754Z,97981.09
2023-04-10T21:34:54.881Z,97981.91
2023-04-10T21:37:20.985Z,97977.59
2023-04-10T21:39:47.087Z,97971.41
2023-04-10T21:42:13.229Z,97983.97
2023-04-10T21:44:39.320Z,98000.03
2023-04-10T21:47:05.406Z,97987.47
2023-04-10T21:49:31.517Z,97985.84
2023-04-10T21:51:57.622Z,97954.53
2023-04-10T21:54:23.718Z,97950.00
2023-04-10T21:56:49.994Z,97940.34
2023-04-10T21:59:16.091Z,97941.41
2023-04-10T22:01:42.347Z,97927.19
2023-04-10T22:04:08.699Z,97921.84
2023-04-10T22:06:34.881Z,97921.84
2023-04-10T22:09:00.980Z,97931.72
2023-04-10T22:11:27.111Z,97910.34
2023-04-10T22:13:53.647Z,97905.78
2023-04-10T22:16:20.874Z,97898.63
2023-04-10T22:18:46.988Z,97887.06
2023-04-10T22:21:13.095Z,97868.34
2023-04-10T22:23:39.205Z,97868.59
2023-04-10T22:26:05.309Z,97883.59
2023-04-10T22:28:31.392Z,97875.56
2023-04-10T22:30:57.515Z,97832.75
2023-04-10T22:33:23.686Z,97846.13
2023-04-10T22:35:49.786Z,97868.59
2023-04-10T22:38:15.915Z,97887.31
2023-04-10T22:40:42.074Z,97878.22
2023-04-10T22:43:08.172Z,97841.03
2023-04-10T22:45:34.276Z,97816.94
2023-04-10T22:48:00.464Z,97785.66
2023-04-10T22:50:26.580Z,97791.22
2023-04-10T22:52:52.722Z,97795.75
2023-04-10T22:55:18.853Z,97784.84
2023-04-10T22:57:44.967Z,97778.66
2023-04-10T23:00:11.077Z,97794.72
2023-04-10T23:02:37.285Z,97816.09
2023-04-10T23:05:04.979Z,97802.72
2023-04-10T23:07:31.089Z,97800.06
2023-04-10T23:09:57.209Z,97803.56
2023-04-10T23:12:23.314Z,97801.09
2023-04-10T23:14:49.432Z,97811.00
2023-04-10T23:17:15.594Z,97801.09
2023-04-10T23:19:41.709Z,97808.31
2023-04-10T23:22:07.814Z,97799.47
2023-04-10T23:24:33.935Z,97809.13
2023-04-10T23:27:00.030Z,97802.97
2023-04-10T23:29:26.313Z,97805.66
2023-04-10T23:31:52.494Z,97815.50
2023-04-10T23:34:18.617Z,97829.72
2023-04-10T23:36:44.719Z,97809.34
2023-04-10T23:39:10.833Z,97810.16
2023-04-10T23:41:36.929Z,97826.22
2023-04-10T23:44:03.036Z,97818.19
2023-04-10T23:46:29.284Z,97828.06
2023-04-10T23:48:55.393Z,97832.63
2023-04-10T23:51:21.494Z,97824.59
2023-04-10T23:53:47.700Z,97829.94
2023-04-10T23:56:13.820Z,97831.81
2023-04-10T23:58:39.960Z,97828.31
